createdAt,value
2022-09-28T02:00:51.111Z,96.69
2022-09-28T02:01:11.799Z,96.90
2022-09-28T02:01:32.082Z,97.10
2022-09-28T02:01:52.680Z,97.20
2022-09-28T02:02:13.183Z,97.31
2022-09-28T02:02:33.862Z,97.31
2022-09-28T02:02:54.434Z,97.31
2022-09-28T02:03:15.014Z,97.20
2022-09-28T02:03:35.594Z,97.10
2022-09-28T02:03:56.188Z,97.00
2022-09-28T02:04:16.578Z,96.90
2022-09-28T02:04:37.161Z,96.90
2022-09-28T02:04:57.752Z,96.80
2022-09-28T02:05:18.330Z,96.69
2022-09-28T02:05:38.920Z,96.59
2022-09-28T02:05:59.311Z,96.80
2022-09-28T02:06:19.891Z,96.90
2022-09-28T02:06:40.478Z,97.00
2022-09-28T02:07:01.063Z,97.00
2022-09-28T02:07:21.628Z,97.20
2022-09-28T02:07:42.225Z,97.31
2022-09-28T02:08:02.822Z,97.20
2022-09-28T02:08:23.406Z,97.20
2022-09-28T02:08:43.985Z,97.20
2022-09-28T02:09:04.387Z,97.20
2022-09-28T02:09:24.974Z,97.20
2022-09-28T02:09:45.556Z,97.20
2022-09-28T02:10:06.143Z,97.41
2022-09-28T02:10:26.727Z,97.41
2022-09-28T02:10:47.304Z,97.31
2022-09-28T02:11:07.886Z,97.20
2022-09-28T02:11:28.477Z,97.20
2022-09-28T02:11:49.058Z,97.31
2022-09-28T02:12:09.638Z,97.41
2022-09-28T02:12:30.242Z,97.52
2022-09-28T02:12:50.827Z,97.52
2022-09-28T02:13:11.400Z,97.41
2022-09-28T02:13:31.986Z,97.31
2022-09-28T02:13:52.564Z,97.31
2022-09-28T02:14:13.144Z,97.20
2022-09-28T02:14:33.726Z,97.20
2022-09-28T02:14:54.694Z,97.20
2022-09-28T02:15:15.619Z,97.20
2022-09-28T02:15:36.199Z,97.20
2022-09-28T02:15:56.892Z,97.20
2022-09-28T02:16:17.578Z,97.10
2022-09-28T02:16:38.201Z,97.10
2022-09-28T02:16:58.755Z,96.90
2022-09-28T02:17:19.334Z,96.90
2022-09-28T02:17:39.930Z,96.80
2022-09-28T02:18:00.510Z,96.80
2022-09-28T02:18:21.098Z,96.80
2022-09-28T02:18:41.676Z,96.80
2022-09-28T02:19:02.259Z,96.69
2022-09-28T02:19:22.840Z,96.80
2022-09-28T02:19:43.425Z,96.90
2022-09-28T02:20:04.005Z,96.80
2022-09-28T02:20:24.588Z,96.69
2022-09-28T02:20:45.172Z,96.59
2022-09-28T02:21:05.755Z,96.48
2022-09-28T02:21:26.336Z,96.59
2022-09-28T02:21:46.922Z,96.59
2022-09-28T02:22:07.508Z,96.59
2022-09-28T02:22:28.089Z,96.59
2022-09-28T02:22:48.502Z,96.59
2022-09-28T02:23:08.902Z,96.59
2022-09-28T02:23:29.485Z,96.59
2022-09-28T02:23:50.069Z,96.59
2022-09-28T02:24:10.649Z,96.59
2022-09-28T02:24:31.236Z,96.80
2022-09-28T02:24:51.816Z,96.80
2022-09-28T02:25:12.397Z,96.80
2022-09-28T02:25:32.978Z,96.80
2022-09-28T02:25:53.563Z,96.69
2022-09-28T02:26:14.146Z,96.59
2022-09-28T02:26:34.551Z,96.48
2022-09-28T02:26:55.124Z,96.48
2022-09-28T02:27:15.704Z,96.48
2022-09-28T02:27:36.111Z,96.39
2022-09-28T02:27:56.693Z,96.48
2022-09-28T02:28:17.284Z,96.59
2022-09-28T02:28:37.862Z,96.59
2022-09-28T02:28:58.435Z,96.59
2022-09-28T02:29:19.153Z,96.59
2022-09-28T02:29:39.735Z,96.69
2022-09-28T02:30:00.322Z,96.69
2022-09-28T02:30:20.899Z,96.80
2022-09-28T02:30:41.482Z,96.80
2022-09-28T02:31:02.402Z,96.80
2022-09-28T02:31:23.087Z,96.69
2022-09-28T02:31:43.710Z,96.69
2022-09-28T02:32:04.318Z,96.69
2022-09-28T02:32:24.908Z,96.80
2022-09-28T02:32:45.505Z,96.80
2022-09-28T02:33:06.085Z,96.69
2022-09-28T02:33:26.672Z,96.69
2022-09-28T02:33:47.250Z,96.69
2022-09-28T02:34:07.833Z,96.59
2022-09-28T02:34:28.415Z,96.48
2022-09-28T02:34:49.004Z,96.48
2022-09-28T02:35:09.586Z,96.48
2022-09-28T02:35:30.171Z,96.48
2022-09-28T02:35:50.748Z,96.59
2022-09-28T02:36:11.329Z,96.59
2022-09-28T02:36:31.911Z,96.59
2022-09-28T02:36:52.497Z,96.59
2022-09-28T02:37:13.078Z,96.59
2022-09-28T02:37:33.675Z,96.59
2022-09-28T02:37:54.255Z,96.59
2022-09-28T02:38:14.838Z,96.39
2022-09-28T02:38:35.423Z,96.18
2022-09-28T02:38:56.010Z,96.08
2022-09-28T02:39:16.743Z,95.97
2022-09-28T02:39:37.354Z,95.97
2022-09-28T02:39:57.937Z,95.97
2022-09-28T02:40:18.600Z,95.87
2022-09-28T02:40:39.235Z,95.87
2022-09-28T02:40:59.919Z,95.87
2022-09-28T02:41:20.534Z,95.77
2022-09-28T02:41:41.117Z,95.77
2022-09-28T02:42:01.698Z,95.67
2022-09-28T02:42:22.281Z,95.46
2022-09-28T02:42:42.879Z,95.56
2022-09-28T02:43:03.460Z,95.87
2022-09-28T02:43:24.047Z,96.08
2022-09-28T02:43:44.623Z,96.18
2022-09-28T02:44:05.211Z,96.28
2022-09-28T02:44:25.794Z,96.18
2022-09-28T02:44:46.380Z,96.28
2022-09-28T02:45:06.773Z,96.39
2022-09-28T02:45:27.458Z,96.28
2022-09-28T02:45:48.148Z,96.28
2022-09-28T02:46:08.884Z,96.39
2022-09-28T02:46:29.472Z,96.48
2022-09-28T02:46:50.055Z,96.69
2022-09-28T02:47:10.638Z,96.69
2022-09-28T02:47:31.234Z,96.69
2022-09-28T02:47:51.818Z,96.69
2022-09-28T02:48:12.400Z,96.59
2022-09-28T02:48:43.718Z,96.69
2022-09-28T02:49:10.475Z,96.69
2022-09-28T02:49:22.330Z,96.80
2022-09-28T02:49:34.339Z,96.69
2022-09-28T02:49:54.935Z,96.69
2022-09-28T02:50:15.514Z,96.59
2022-09-28T02:50:36.097Z,96.39
2022-09-28T02:50:56.674Z,96.39
2022-09-28T02:51:17.259Z,96.39
2022-09-28T02:51:37.840Z,96.39
2022-09-28T02:51:58.231Z,96.28
2022-09-28T02:52:18.814Z,96.18
2022-09-28T02:52:39.412Z,96.08
2022-09-28T02:53:00.044Z,96.18
2022-09-28T02:53:20.615Z,96.18
2022-09-28T02:53:41.198Z,95.97
2022-09-28T02:54:01.779Z,96.08
2022-09-28T02:54:22.361Z,96.18
2022-09-28T02:54:42.945Z,96.08
2022-09-28T02:55:03.530Z,95.87
2022-09-28T02:55:24.110Z,95.67
2022-09-28T02:55:44.690Z,95.46
2022-09-28T02:56:05.270Z,95.46
2022-09-28T02:56:25.856Z,95.56
2022-09-28T02:56:46.441Z,95.56
2022-09-28T02:57:06.825Z,95.67
2022-09-28T02:57:27.408Z,95.67
2022-09-28T02:57:48.012Z,95.46
2022-09-28T02:58:08.593Z,95.25
2022-09-28T02:58:29.176Z,95.15
2022-09-28T02:58:49.763Z,95.25
2022-09-28T02:59:10.376Z,95.46
2022-09-28T02:59:30.942Z,95.67
2022-09-28T02:59:51.521Z,95.87
2022-09-28T03:00:12.100Z,95.87
2022-09-28T03:00:32.768Z,95.87
2022-09-28T03:00:53.422Z,95.77
2022-09-28T03:01:14.188Z,95.77
2022-09-28T03:01:34.746Z,96.02
2022-09-28T03:01:55.390Z,95.92
2022-09-28T03:02:16.074Z,95.87
2022-09-28T03:02:36.658Z,95.92
2022-09-28T03:02:57.271Z,95.77
2022-09-28T03:03:17.819Z,95.71
2022-09-28T03:03:38.400Z,95.71
2022-09-28T03:03:58.984Z,95.67
2022-09-28T03:04:19.569Z,95.56
2022-09-28T03:04:40.149Z,95.61
2022-09-28T03:05:00.736Z,95.46
2022-09-28T03:05:21.311Z,95.61
2022-09-28T03:05:41.902Z,95.71
2022-09-28T03:06:02.490Z,95.97
2022-09-28T03:06:23.070Z,96.22
2022-09-28T03:06:43.656Z,96.28
2022-09-28T03:07:04.236Z,96.43
2022-09-28T03:07:24.816Z,96.39
2022-09-28T03:07:45.417Z,96.43
2022-09-28T03:08:05.996Z,96.43
2022-09-28T03:08:26.585Z,96.39
2022-09-28T03:08:47.180Z,96.39
2022-09-28T03:09:07.762Z,96.43
2022-09-28T03:09:28.344Z,96.22
2022-09-28T03:09:48.922Z,96.12
2022-09-28T03:10:09.318Z,96.08
2022-09-28T03:10:29.896Z,96.22
2022-09-28T03:10:50.313Z,96.43
2022-09-28T03:11:10.882Z,96.39
2022-09-28T03:11:31.274Z,96.39
2022-09-28T03:11:51.857Z,96.39
2022-09-28T03:12:12.436Z,96.33
2022-09-28T03:12:32.841Z,96.22
2022-09-28T03:12:53.243Z,95.92
2022-09-28T03:13:13.832Z,95.92
2022-09-28T03:13:34.218Z,96.33
2022-09-28T03:13:54.794Z,96.64
2022-09-28T03:14:15.372Z,96.64
2022-09-28T03:14:35.951Z,96.43
2022-09-28T03:14:56.354Z,96.43
2022-09-28T03:15:16.747Z,96.53
2022-09-28T03:15:37.326Z,96.64
2022-09-28T03:15:57.940Z,96.94
2022-09-28T03:16:18.585Z,97.25
2022-09-28T03:16:39.213Z,97.36
2022-09-28T03:16:59.793Z,97.36
2022-09-28T03:17:20.375Z,97.45
2022-09-28T03:17:40.971Z,97.36
2022-09-28T03:18:01.568Z,97.25
2022-09-28T03:18:22.138Z,97.15
2022-09-28T03:18:42.729Z,96.94
2022-09-28T03:19:03.304Z,96.94
2022-09-28T03:19:23.884Z,96.94
2022-09-28T03:19:44.467Z,96.94
2022-09-28T03:20:05.050Z,96.84
2022-09-28T03:20:25.446Z,96.73
2022-09-28T03:20:46.029Z,96.64
2022-09-28T03:21:06.611Z,96.53
2022-09-28T03:21:27.009Z,96.43
2022-09-28T03:21:47.590Z,96.43
2022-09-28T03:22:08.164Z,96.43
2022-09-28T03:22:28.563Z,96.53
2022-09-28T03:23:06.372Z,96.64
2022-09-28T03:23:25.559Z,96.64
2022-09-28T03:23:29.971Z,96.64
2022-09-28T03:23:50.552Z,96.73
2022-09-28T03:24:11.156Z,96.73
2022-09-28T03:24:31.724Z,96.84
2022-09-28T03:24:52.302Z,96.94
2022-09-28T03:25:12.697Z,97.15
2022-09-28T03:25:33.278Z,97.25
2022-09-28T03:25:53.863Z,97.36
2022-09-28T03:26:14.445Z,97.45
2022-09-28T03:26:35.027Z,97.45
2022-09-28T03:26:55.610Z,97.36
2022-09-28T03:27:16.195Z,97.15
2022-09-28T03:27:36.785Z,97.15
2022-09-28T03:27:57.367Z,97.15
2022-09-28T03:28:17.949Z,97.25
2022-09-28T03:28:38.531Z,97.25
2022-09-28T03:28:59.114Z,97.15
2022-09-28T03:29:19.696Z,97.05
2022-09-28T03:29:40.094Z,97.05
2022-09-28T03:30:00.675Z,97.05
2022-09-28T03:30:21.259Z,97.05
2022-09-28T03:30:41.848Z,97.05
2022-09-28T03:31:02.626Z,97.15
2022-09-28T03:31:23.269Z,97.15
2022-09-28T03:31:43.897Z,97.15
2022-09-28T03:32:04.498Z,97.15
2022-09-28T03:32:25.089Z,97.15
2022-09-28T03:32:45.685Z,97.25
2022-09-28T03:33:06.265Z,97.36
2022-09-28T03:33:26.851Z,97.45
2022-09-28T03:33:47.440Z,97.45
2022-09-28T03:34:08.020Z,97.36
2022-09-28T03:34:28.414Z,97.36
2022-09-28T03:34:48.996Z,97.56
2022-09-28T03:35:09.581Z,97.77
2022-09-28T03:35:30.160Z,97.77
2022-09-28T03:35:50.737Z,97.66
2022-09-28T03:36:11.322Z,97.66
2022-09-28T03:36:31.903Z,97.77
2022-09-28T03:36:52.486Z,97.66
2022-09-28T03:37:13.132Z,97.56
2022-09-28T03:37:33.684Z,97.45
2022-09-28T03:37:54.265Z,97.36
2022-09-28T03:38:14.865Z,97.45
2022-09-28T03:38:35.429Z,97.56
2022-09-28T03:38:56.013Z,97.56
2022-09-28T03:39:16.816Z,97.56
2022-09-28T03:39:37.421Z,97.45
2022-09-28T03:39:58.009Z,97.25
2022-09-28T03:40:18.633Z,97.15
2022-09-28T03:40:39.305Z,97.05
2022-09-28T03:41:00.035Z,97.15
2022-09-28T03:41:20.267Z,97.25
2022-09-28T03:41:40.851Z,97.25
2022-09-28T03:42:01.438Z,97.25
2022-09-28T03:42:22.018Z,97.36
2022-09-28T03:42:42.611Z,97.36
2022-09-28T03:43:03.190Z,97.36
2022-09-28T03:43:23.761Z,97.36
2022-09-28T03:43:44.344Z,97.15
2022-09-28T03:44:04.925Z,97.15
2022-09-28T03:44:25.507Z,97.05
2022-09-28T03:44:46.087Z,97.05
2022-09-28T03:45:06.676Z,96.94
2022-09-28T03:45:27.329Z,96.94
2022-09-28T03:45:47.979Z,96.94
2022-09-28T03:46:08.630Z,97.05
2022-09-28T03:46:29.266Z,97.15
2022-09-28T03:46:49.827Z,97.15
2022-09-28T03:47:10.404Z,97.15
2022-09-28T03:47:30.997Z,97.25
2022-09-28T03:47:51.577Z,97.25
2022-09-28T03:48:12.157Z,97.25
2022-09-28T03:48:33.178Z,97.36
2022-09-28T03:48:53.779Z,97.25
2022-09-28T03:49:14.543Z,97.25
2022-09-28T03:49:35.164Z,97.25
2022-09-28T03:49:55.739Z,97.25
2022-09-28T03:50:16.139Z,97.05
2022-09-28T03:50:36.714Z,97.05
2022-09-28T03:50:57.299Z,96.94
2022-09-28T03:51:17.880Z,97.05
2022-09-28T03:51:38.462Z,97.05
2022-09-28T03:51:59.042Z,97.15
2022-09-28T03:52:19.434Z,97.25
2022-09-28T03:52:39.846Z,97.25
2022-09-28T03:53:00.425Z,97.25
2022-09-28T03:53:20.818Z,97.36
2022-09-28T03:53:41.395Z,97.36
2022-09-28T03:54:01.799Z,97.25
2022-09-28T03:54:22.186Z,97.36
2022-09-28T03:54:46.931Z,97.36
2022-09-28T03:55:03.173Z,97.36
2022-09-28T03:55:23.754Z,97.36
2022-09-28T03:55:44.348Z,97.36
2022-09-28T03:56:04.936Z,97.25
2022-09-28T03:56:25.519Z,97.15
2022-09-28T03:56:46.099Z,97.25
2022-09-28T03:57:06.686Z,97.25
2022-09-28T03:57:27.078Z,97.25
2022-09-28T03:57:47.674Z,97.25
2022-09-28T03:58:08.259Z,97.15
2022-09-28T03:58:28.844Z,96.94
2022-09-28T03:58:49.415Z,96.94
2022-09-28T03:59:10.140Z,96.84
2022-09-28T03:59:30.711Z,96.84
2022-09-28T03:59:51.287Z,96.84
2022-09-28T04:00:11.869Z,96.94
2022-09-28T04:00:32.630Z,96.94
2022-09-28T04:00:53.269Z,96.94
2022-09-28T04:01:16.883Z,96.84
2022-09-28T04:01:34.362Z,96.73
2022-09-28T04:01:55.070Z,96.84
2022-09-28T04:02:15.746Z,96.84
2022-09-28T04:02:36.421Z,96.94
2022-09-28T04:02:57.004Z,96.94
2022-09-28T04:03:17.590Z,97.05
2022-09-28T04:03:38.168Z,97.05
2022-09-28T04:03:58.753Z,97.05
2022-09-28T04:04:19.336Z,97.05
2022-09-28T04:04:39.917Z,97.15
2022-09-28T04:05:00.500Z,97.15
2022-09-28T04:05:21.084Z,97.25
2022-09-28T04:05:41.665Z,97.25
2022-09-28T04:06:02.059Z,97.25
2022-09-28T04:06:22.639Z,97.15
2022-09-28T04:06:43.223Z,97.15
2022-09-28T04:07:03.800Z,97.05
2022-09-28T04:07:26.934Z,97.05
2022-09-28T04:07:44.613Z,97.15
2022-09-28T04:08:05.195Z,97.15
2022-09-28T04:08:25.786Z,97.15
2022-09-28T04:08:46.371Z,97.15
2022-09-28T04:09:06.954Z,97.05
2022-09-28T04:09:27.347Z,97.05
2022-09-28T04:09:47.933Z,97.05
2022-09-28T04:10:08.513Z,96.94
2022-09-28T04:10:29.099Z,96.94
2022-09-28T04:10:49.494Z,96.89
2022-09-28T04:11:10.078Z,96.78
2022-09-28T04:11:42.939Z,96.64
2022-09-28T04:12:03.391Z,96.58
2022-09-28T04:12:11.468Z,96.58
2022-09-28T04:12:32.072Z,96.68
2022-09-28T04:12:52.656Z,96.64
2022-09-28T04:13:13.237Z,96.68
2022-09-28T04:13:33.832Z,96.89
2022-09-28T04:13:54.412Z,96.89
2022-09-28T04:14:14.996Z,96.78
2022-09-28T04:14:35.579Z,96.78
2022-09-28T04:14:56.159Z,96.78
2022-09-28T04:15:16.741Z,96.78
2022-09-28T04:15:37.323Z,96.68
2022-09-28T04:15:57.936Z,96.68
2022-09-28T04:16:18.708Z,96.78
2022-09-28T04:16:39.346Z,96.89
2022-09-28T04:16:59.902Z,96.99
2022-09-28T04:17:20.488Z,97.19
2022-09-28T04:17:41.073Z,97.30
2022-09-28T04:18:01.470Z,97.40
2022-09-28T04:18:22.057Z,97.40
2022-09-28T04:18:42.633Z,97.50
2022-09-28T04:19:03.220Z,97.50
2022-09-28T04:19:23.801Z,97.40
2022-09-28T04:19:44.382Z,97.40
2022-09-28T04:20:04.964Z,97.40
2022-09-28T04:20:25.544Z,97.50
2022-09-28T04:20:46.126Z,97.61
2022-09-28T04:21:06.924Z,97.50
2022-09-28T04:21:27.506Z,97.40
2022-09-28T04:21:48.093Z,97.30
2022-09-28T04:22:08.669Z,97.30
2022-09-28T04:22:29.268Z,97.30
2022-09-28T04:22:49.854Z,97.30
2022-09-28T04:23:10.433Z,97.40
2022-09-28T04:23:31.017Z,97.50
2022-09-28T04:23:51.598Z,97.50
2022-09-28T04:24:12.178Z,97.30
2022-09-28T04:24:32.575Z,97.19
2022-09-28T04:24:53.158Z,97.19
2022-09-28T04:25:13.742Z,97.30
2022-09-28T04:25:34.322Z,97.50
2022-09-28T04:25:54.906Z,97.50
2022-09-28T04:26:15.484Z,97.61
2022-09-28T04:26:36.077Z,97.61
2022-09-28T04:26:56.644Z,97.61
2022-09-28T04:27:17.223Z,97.50
2022-09-28T04:27:37.821Z,97.30
2022-09-28T04:27:58.400Z,97.19
2022-09-28T04:28:18.983Z,96.99
2022-09-28T04:28:39.566Z,97.09
2022-09-28T04:29:05.462Z,97.19
2022-09-28T04:29:20.905Z,97.30
2022-09-28T04:29:40.945Z,97.30
2022-09-28T04:30:01.534Z,97.30
2022-09-28T04:30:22.105Z,97.30
2022-09-28T04:30:42.692Z,97.40
2022-09-28T04:31:03.092Z,97.40
2022-09-28T04:31:23.788Z,97.50
2022-09-28T04:31:44.424Z,97.50
2022-09-28T04:32:05.084Z,97.50
2022-09-28T04:32:25.629Z,97.40
2022-09-28T04:32:46.219Z,97.40
2022-09-28T04:33:06.804Z,97.40
2022-09-28T04:33:27.387Z,97.40
2022-09-28T04:33:47.970Z,97.40
2022-09-28T04:34:08.552Z,97.40
2022-09-28T04:34:34.484Z,97.30
2022-09-28T04:34:49.537Z,97.30
2022-09-28T04:35:09.930Z,97.40
2022-09-28T04:35:30.510Z,97.30
2022-09-28T04:35:51.090Z,97.19
2022-09-28T04:36:11.672Z,97.09
2022-09-28T04:36:32.254Z,96.99
2022-09-28T04:36:52.833Z,96.99
2022-09-28T04:37:13.417Z,97.09
2022-09-28T04:37:34.014Z,97.09
2022-09-28T04:37:54.600Z,97.19
2022-09-28T04:38:15.182Z,97.19
2022-09-28T04:38:52.359Z,97.30
2022-09-28T04:38:56.159Z,97.40
2022-09-28T04:39:17.001Z,97.50
2022-09-28T04:39:37.600Z,97.61
2022-09-28T04:39:58.188Z,97.61
2022-09-28T04:40:18.813Z,97.61
2022-09-28T04:40:39.453Z,97.50
2022-09-28T04:41:00.096Z,97.30
2022-09-28T04:41:20.680Z,97.19
2022-09-28T04:41:41.264Z,97.09
2022-09-28T04:42:01.846Z,96.78
2022-09-28T04:42:22.431Z,96.58
2022-09-28T04:42:43.023Z,96.68
2022-09-28T04:43:03.605Z,96.78
2022-09-28T04:43:24.180Z,96.99
2022-09-28T04:43:44.764Z,97.09
2022-09-28T04:44:05.349Z,97.09
2022-09-28T04:44:25.933Z,97.09
2022-09-28T04:44:46.517Z,96.99
2022-09-28T04:45:07.105Z,96.89
2022-09-28T04:45:27.786Z,96.89
2022-09-28T04:45:48.409Z,96.89
2022-09-28T04:46:09.110Z,96.78
2022-09-28T04:46:29.695Z,96.68
2022-09-28T04:46:50.295Z,96.68
2022-09-28T04:47:10.855Z,96.47
2022-09-28T04:47:31.444Z,96.37
2022-09-28T04:47:52.030Z,96.37
2022-09-28T04:48:12.427Z,96.27
2022-09-28T04:48:33.004Z,96.27
2022-09-28T04:48:53.590Z,96.27
2022-09-28T04:49:14.221Z,96.37
2022-09-28T04:49:34.804Z,96.47
2022-09-28T04:49:55.386Z,96.58
2022-09-28T04:50:15.972Z,96.62
2022-09-28T04:50:36.554Z,96.58
2022-09-28T04:50:57.136Z,96.58
2022-09-28T04:51:17.717Z,96.68
2022-09-28T04:51:38.300Z,96.78
2022-09-28T04:51:58.882Z,96.89
2022-09-28T04:52:19.464Z,96.89
2022-09-28T04:52:40.048Z,96.93
2022-09-28T04:53:00.633Z,96.89
2022-09-28T04:53:21.213Z,96.89
2022-09-28T04:53:41.798Z,96.93
2022-09-28T04:54:02.377Z,96.89
2022-09-28T04:54:22.773Z,96.93
2022-09-28T04:54:43.361Z,96.89
2022-09-28T04:55:03.946Z,96.89
2022-09-28T04:55:24.525Z,96.89
2022-09-28T04:55:45.110Z,96.78
2022-09-28T04:56:05.701Z,96.78
2022-09-28T04:56:26.271Z,96.89
2022-09-28T04:56:46.857Z,96.99
2022-09-28T04:57:07.249Z,97.09
2022-09-28T04:57:27.834Z,97.19
2022-09-28T04:57:48.423Z,97.19
2022-09-28T04:58:09.005Z,97.09
2022-09-28T04:58:29.588Z,97.19
2022-09-28T04:58:52.707Z,97.19
2022-09-28T04:59:13.610Z,97.09
2022-09-28T04:59:33.939Z,97.09
2022-09-28T04:59:54.522Z,96.99
2022-09-28T05:00:15.104Z,97.09
2022-09-28T05:00:35.687Z,97.09
2022-09-28T05:00:56.375Z,97.19
2022-09-28T05:01:16.957Z,97.19
2022-09-28T05:01:37.574Z,97.19
2022-09-28T05:01:58.216Z,97.19
2022-09-28T05:02:18.837Z,97.09
2022-09-28T05:02:39.310Z,97.09
2022-09-28T05:02:59.914Z,97.09
2022-09-28T05:03:20.497Z,97.09
2022-09-28T05:03:41.076Z,97.19
2022-09-28T05:04:01.659Z,97.30
2022-09-28T05:04:25.806Z,97.40
2022-09-28T05:04:46.756Z,97.19
2022-09-28T05:05:07.152Z,97.19
2022-09-28T05:05:27.735Z,97.09
2022-09-28T05:05:48.318Z,97.09
2022-09-28T05:06:08.906Z,97.19
2022-09-28T05:06:29.479Z,97.19
2022-09-28T05:06:50.071Z,97.19
2022-09-28T05:07:10.650Z,97.30
2022-09-28T05:07:31.275Z,97.40
2022-09-28T05:07:51.840Z,97.50
2022-09-28T05:08:12.419Z,97.61
2022-09-28T05:08:33.001Z,97.61
2022-09-28T05:08:53.620Z,97.61
2022-09-28T05:09:14.242Z,97.50
2022-09-28T05:09:38.274Z,97.50
2022-09-28T05:09:59.169Z,97.50
2022-09-28T05:10:19.754Z,97.50
2022-09-28T05:10:40.339Z,97.40
2022-09-28T05:11:00.926Z,97.40
2022-09-28T05:11:21.510Z,97.40
2022-09-28T05:11:42.086Z,97.40
2022-09-28T05:12:02.669Z,97.40
2022-09-28T05:12:23.251Z,97.40
2022-09-28T05:12:43.851Z,97.40
2022-09-28T05:13:04.431Z,97.40
2022-09-28T05:13:25.017Z,97.50
2022-09-28T05:13:45.691Z,97.61
2022-09-28T05:14:06.256Z,97.61
2022-09-28T05:14:26.841Z,97.61
2022-09-28T05:14:47.426Z,97.40
2022-09-28T05:15:08.016Z,97.40
2022-09-28T05:15:28.592Z,97.30
2022-09-28T05:15:49.218Z,97.19
2022-09-28T05:16:09.832Z,97.09
2022-09-28T05:16:30.416Z,96.99
2022-09-28T05:16:51.060Z,97.09
2022-09-28T05:17:11.419Z,97.19
2022-09-28T05:17:31.969Z,97.19
2022-09-28T05:17:52.368Z,97.19
2022-09-28T05:18:12.951Z,97.19
2022-09-28T05:18:33.568Z,97.30
2022-09-28T05:18:54.149Z,97.30
2022-09-28T05:19:14.933Z,97.30
2022-09-28T05:19:35.580Z,97.40
2022-09-28T05:19:56.166Z,97.61
2022-09-28T05:20:16.754Z,97.50
2022-09-28T05:20:37.334Z,97.30
2022-09-28T05:20:57.732Z,96.99
2022-09-28T05:21:18.125Z,96.78
2022-09-28T05:21:38.707Z,96.78
2022-09-28T05:21:59.285Z,96.78
2022-09-28T05:22:19.678Z,96.78
2022-09-28T05:22:40.273Z,96.89
2022-09-28T05:23:00.857Z,96.99
2022-09-28T05:23:21.438Z,97.09
2022-09-28T05:23:42.023Z,96.99
2022-09-28T05:24:02.601Z,97.09
2022-09-28T05:24:23.175Z,97.09
2022-09-28T05:24:43.766Z,97.30
2022-09-28T05:25:04.340Z,97.40
2022-09-28T05:25:24.921Z,97.50
2022-09-28T05:25:45.504Z,97.61
2022-09-28T05:26:05.895Z,97.50
2022-09-28T05:26:26.292Z,97.40
2022-09-28T05:26:46.873Z,97.30
2022-09-28T05:27:07.459Z,97.30
2022-09-28T05:27:28.043Z,97.19
2022-09-28T05:27:48.636Z,97.09
2022-09-28T05:28:09.219Z,96.99
2022-09-28T05:28:29.795Z,96.99
2022-09-28T05:28:50.193Z,96.89
2022-09-28T05:29:10.798Z,96.99
2022-09-28T05:29:32.492Z,97.09
2022-09-28T05:29:53.280Z,97.09
2022-09-28T05:30:13.859Z,97.19
2022-09-28T05:30:34.439Z,97.19
2022-09-28T05:30:54.833Z,97.30
2022-09-28T05:31:15.518Z,97.40
2022-09-28T05:31:36.179Z,97.40
2022-09-28T05:31:56.547Z,97.40
2022-09-28T05:32:17.108Z,97.30
2022-09-28T05:32:37.681Z,97.30
2022-09-28T05:32:58.262Z,97.19
2022-09-28T05:33:18.844Z,97.09
2022-09-28T05:33:39.237Z,96.99
2022-09-28T05:33:59.821Z,97.09
2022-09-28T05:34:20.405Z,97.09
2022-09-28T05:34:40.987Z,97.09
2022-09-28T05:35:01.564Z,97.09
2022-09-28T05:35:22.149Z,97.09
2022-09-28T05:35:42.731Z,96.99
2022-09-28T05:36:03.121Z,96.99
2022-09-28T05:36:23.701Z,97.09
2022-09-28T05:36:44.284Z,97.09
2022-09-28T05:37:04.862Z,96.99
2022-09-28T05:37:25.455Z,97.09
2022-09-28T05:37:46.058Z,97.09
2022-09-28T05:38:06.451Z,97.09
2022-09-28T05:38:26.845Z,96.99
2022-09-28T05:38:47.424Z,97.09
2022-09-28T05:39:07.820Z,96.99
2022-09-28T05:39:28.215Z,97.09
2022-09-28T05:39:48.807Z,97.19
2022-09-28T05:40:09.387Z,97.09
2022-09-28T05:40:30.015Z,96.99
2022-09-28T05:40:50.692Z,97.09
2022-09-28T05:41:11.335Z,97.19
2022-09-28T05:41:31.893Z,97.19
2022-09-28T05:41:52.477Z,97.30
2022-09-28T05:42:13.063Z,97.19
2022-09-28T05:42:33.654Z,97.09
2022-09-28T05:42:54.237Z,97.09
2022-09-28T05:43:14.821Z,96.99
2022-09-28T05:43:35.401Z,96.99
2022-09-28T05:43:55.981Z,96.89
2022-09-28T05:44:16.733Z,96.89
2022-09-28T05:44:37.344Z,96.89
2022-09-28T05:44:57.925Z,96.89
2022-09-28T05:45:18.506Z,96.89
2022-09-28T05:45:39.130Z,96.99
2022-09-28T05:45:59.724Z,96.99
2022-09-28T05:46:20.428Z,96.99
2022-09-28T05:46:40.690Z,97.09
2022-09-28T05:47:01.272Z,97.09
2022-09-28T05:47:21.876Z,97.09
2022-09-28T05:47:42.459Z,97.09
2022-09-28T05:48:03.035Z,97.09
2022-09-28T05:48:23.444Z,96.99
2022-09-28T05:48:44.012Z,96.99
2022-09-28T05:49:04.597Z,97.09
2022-09-28T05:49:25.172Z,97.09
2022-09-28T05:49:45.781Z,97.09
2022-09-28T05:50:06.366Z,96.99
2022-09-28T05:50:26.946Z,96.89
2022-09-28T05:50:47.526Z,96.78
2022-09-28T05:51:08.108Z,96.78
2022-09-28T05:51:28.509Z,96.78
2022-09-28T05:51:48.901Z,96.78
2022-09-28T05:52:09.484Z,96.78
2022-09-28T05:52:30.083Z,96.89
2022-09-28T05:52:50.665Z,96.89
2022-09-28T05:53:11.251Z,96.78
2022-09-28T05:53:31.653Z,96.68
2022-09-28T05:53:52.233Z,96.58
2022-09-28T05:54:12.820Z,96.68
2022-09-28T05:54:33.434Z,96.68
2022-09-28T05:54:54.008Z,96.68
2022-09-28T05:55:14.589Z,96.68
2022-09-28T05:55:35.173Z,96.58
2022-09-28T05:55:55.755Z,96.47
2022-09-28T05:56:16.335Z,96.37
2022-09-28T05:56:36.916Z,96.37
2022-09-28T05:56:57.500Z,96.37
2022-09-28T05:57:18.077Z,96.47
2022-09-28T05:57:38.677Z,96.58
2022-09-28T05:57:59.257Z,96.68
2022-09-28T05:58:19.833Z,96.58
2022-09-28T05:58:40.415Z,96.58
2022-09-28T05:59:00.995Z,96.58
2022-09-28T05:59:21.577Z,96.47
2022-09-28T05:59:42.160Z,96.58
2022-09-28T06:00:02.752Z,96.58
2022-09-28T06:00:23.323Z,96.68
2022-09-28T06:00:43.906Z,96.68
2022-09-28T06:01:04.353Z,96.58
2022-09-28T06:01:24.989Z,96.47
2022-09-28T06:01:45.552Z,96.47
2022-09-28T06:02:06.180Z,96.58
2022-09-28T06:02:26.924Z,96.58
2022-09-28T06:02:47.587Z,96.47
2022-09-28T06:03:09.441Z,96.47
2022-09-28T06:03:30.271Z,96.47
2022-09-28T06:03:50.807Z,96.58
2022-09-28T06:04:11.388Z,96.58
2022-09-28T06:04:31.969Z,96.58
2022-09-28T06:04:52.547Z,96.58
2022-09-28T06:05:12.951Z,96.47
2022-09-28T06:05:33.536Z,96.58
2022-09-28T06:05:53.916Z,96.58
2022-09-28T06:06:14.500Z,96.68
2022-09-28T06:06:35.083Z,96.68
2022-09-28T06:06:55.665Z,96.78
2022-09-28T06:07:16.249Z,96.89
2022-09-28T06:07:36.827Z,96.89
2022-09-28T06:07:57.426Z,96.89
2022-09-28T06:08:18.006Z,96.78
2022-09-28T06:08:38.589Z,96.68
2022-09-28T06:08:59.173Z,96.68
2022-09-28T06:09:22.711Z,96.47
2022-09-28T06:09:40.158Z,96.47
2022-09-28T06:10:00.744Z,96.37
2022-09-28T06:10:21.140Z,96.47
2022-09-28T06:10:41.717Z,96.47
2022-09-28T06:11:02.115Z,96.68
2022-09-28T06:11:22.697Z,96.78
2022-09-28T06:11:43.278Z,96.89
2022-09-28T06:12:03.869Z,96.89
2022-09-28T06:12:24.441Z,96.84
2022-09-28T06:12:45.023Z,96.89
2022-09-28T06:13:05.617Z,96.84
2022-09-28T06:13:26.199Z,96.73
2022-09-28T06:13:46.777Z,96.73
2022-09-28T06:14:07.358Z,96.73
2022-09-28T06:14:27.944Z,96.73
2022-09-28T06:14:48.529Z,96.64
2022-09-28T06:15:09.115Z,96.53
2022-09-28T06:15:29.517Z,96.64
2022-09-28T06:15:50.093Z,96.64
2022-09-28T06:16:10.729Z,96.64
2022-09-28T06:16:31.161Z,96.73
2022-09-28T06:16:51.806Z,96.73
2022-09-28T06:17:12.403Z,96.53
2022-09-28T06:17:33.010Z,96.43
2022-09-28T06:17:53.569Z,96.33
2022-09-28T06:18:14.163Z,96.33
2022-09-28T06:18:34.750Z,96.33
2022-09-28T06:18:55.324Z,96.33
2022-09-28T06:19:15.903Z,96.33
2022-09-28T06:19:36.484Z,96.43
2022-09-28T06:19:57.064Z,96.33
2022-09-28T06:20:17.646Z,96.33
2022-09-28T06:20:38.227Z,96.33
2022-09-28T06:20:58.808Z,96.43
2022-09-28T06:21:19.390Z,96.43
2022-09-28T06:21:39.788Z,96.53
2022-09-28T06:22:00.371Z,96.64
2022-09-28T06:22:20.956Z,96.53
2022-09-28T06:22:41.535Z,96.53
2022-09-28T06:23:02.136Z,96.64
2022-09-28T06:23:22.533Z,96.64
2022-09-28T06:23:46.941Z,96.64
2022-09-28T06:24:03.530Z,96.64
2022-09-28T06:24:23.925Z,96.53
2022-09-28T06:24:44.320Z,96.53
2022-09-28T06:25:04.905Z,96.64
2022-09-28T06:25:25.488Z,96.84
2022-09-28T06:25:46.070Z,97.05